sensor_id;sensor_type;location;lat;lon;timestamp;P1;durP1;ratioP1;P2;durP2;ratioP2
39896;SDS011;25567;48.276;14.242;2022-08-21T00:02:01;22.35;;;12.90;;
39896;SDS011;25567;48.276;14.242;2022-08-21T00:04:27;22.65;;;12.50;;
39896;SDS011;25567;48.276;14.242;2022-08-21T00:06:55;22.98;;;12.80;;
39896;SDS011;25567;48.276;14.242;2022-08-21T00:09:23;20.17;;;13.55;;
39896;SDS011;25567;48.276;14.242;2022-08-21T00:11:49;35.78;;;14.90;;
39896;SDS011;25567;48.276;14.242;2022-08-21T00:14:16;21.95;;;13.43;;
39896;SDS011;25567;48.276;14.242;2022-08-21T00:16:43;23.92;;;13.93;;
39896;SDS011;25567;48.276;14.242;2022-08-21T00:19:09;22.58;;;13.85;;
39896;SDS011;25567;48.276;14.242;2022-08-21T00:21:37;23.75;;;13.73;;
39896;SDS011;25567;48.276;14.242;2022-08-21T00:24:03;24.13;;;12.98;;
39896;SDS011;25567;48.276;14.242;2022-08-21T00:26:32;24.25;;;14.40;;
39896;SDS011;25567;48.276;14.242;2022-08-21T00:28:59;24.95;;;14.60;;
39896;SDS011;25567;48.276;14.242;2022-08-21T00:31:26;27.40;;;14.65;;
39896;SDS011;25567;48.276;14.242;2022-08-21T00:33:53;20.95;;;12.73;;
39896;SDS011;25567;48.276;14.242;2022-08-21T00:36:26;26.55;;;14.75;;
39896;SDS011;25567;48.276;14.242;2022-08-21T00:38:53;26.60;;;14.15;;
39896;SDS011;25567;48.276;14.242;2022-08-21T00:41:19;31.30;;;16.75;;
39896;SDS011;25567;48.276;14.242;2022-08-21T00:44:03;26.80;;;14.63;;
39896;SDS011;25567;48.276;14.242;2022-08-21T00:46:31;24.58;;;15.02;;
39896;SDS011;25567;48.276;14.242;2022-08-21T00:48:58;29.38;;;14.88;;
39896;SDS011;25567;48.276;14.242;2022-08-21T00:51:27;23.88;;;14.68;;
39896;SDS011;25567;48.276;14.242;2022-08-21T00:54:04;27.13;;;14.52;;
39896;SDS011;25567;48.276;14.242;2022-08-21T00:56:38;22.90;;;14.70;;
39896;SDS011;25567;48.276;14.242;2022-08-21T00:59:07;27.88;;;14.45;;
39896;SDS011;25567;48.276;14.242;2022-08-21T01:01:34;24.35;;;13.77;;
39896;SDS011;25567;48.276;14.242;2022-08-21T01:04:01;26.15;;;14.93;;
39896;SDS011;25567;48.276;14.242;2022-08-21T01:06:28;24.65;;;14.82;;
39896;SDS011;25567;48.276;14.242;2022-08-21T01:08:55;25.63;;;14.98;;
39896;SDS011;25567;48.276;14.242;2022-08-21T01:11:22;26.20;;;14.75;;
39896;SDS011;25567;48.276;14.242;2022-08-21T01:13:48;25.23;;;15.00;;
39896;SDS011;25567;48.276;14.242;2022-08-21T01:16:17;28.88;;;15.93;;
39896;SDS011;25567;48.276;14.242;2022-08-21T01:18:46;28.52;;;15.18;;
39896;SDS011;25567;48.276;14.242;2022-08-21T01:21:15;28.73;;;15.70;;
39896;SDS011;25567;48.276;14.242;2022-08-21T01:23:46;30.15;;;15.40;;
39896;SDS011;25567;48.276;14.242;2022-08-21T01:26:17;30.42;;;17.45;;
39896;SDS011;25567;48.276;14.242;2022-08-21T01:28:54;29.58;;;15.98;;
39896;SDS011;25567;48.276;14.242;2022-08-21T01:31:26;29.75;;;16.60;;
39896;SDS011;25567;48.276;14.242;2022-08-21T01:33:55;26.70;;;15.82;;
39896;SDS011;25567;48.276;14.242;2022-08-21T01:36:22;28.00;;;15.18;;
39896;SDS011;25567;48.276;14.242;2022-08-21T01:38:50;31.58;;;15.30;;
39896;SDS011;25567;48.276;14.242;2022-08-21T01:41:16;27.55;;;16.17;;
39896;SDS011;25567;48.276;14.242;2022-08-21T01:43:44;32.65;;;15.85;;
39896;SDS011;25567;48.276;14.242;2022-08-21T01:46:11;30.90;;;15.95;;
39896;SDS011;25567;48.276;14.242;2022-08-21T01:48:39;28.10;;;16.42;;
39896;SDS011;25567;48.276;14.242;2022-08-21T01:51:06;28.45;;;16.58;;
39896;SDS011;25567;48.276;14.242;2022-08-21T01:53:33;38.22;;;18.52;;
39896;SDS011;25567;48.276;14.242;2022-08-21T01:56:03;37.83;;;18.52;;
39896;SDS011;25567;48.276;14.242;2022-08-21T01:58:37;28.85;;;16.80;;
39896;SDS011;25567;48.276;14.242;2022-08-21T02:01:05;28.38;;;16.40;;
39896;SDS011;25567;48.276;14.242;2022-08-21T02:03:32;30.48;;;17.75;;
39896;SDS011;25567;48.276;14.242;2022-08-21T02:06:02;25.90;;;16.25;;
39896;SDS011;25567;48.276;14.242;2022-08-21T02:08:29;32.15;;;16.20;;
39896;SDS011;25567;48.276;14.242;2022-08-21T02:10:56;29.73;;;16.38;;
39896;SDS011;25567;48.276;14.242;2022-08-21T02:13:23;29.63;;;15.90;;
39896;SDS011;25567;48.276;14.242;2022-08-21T02:15:50;26.00;;;14.60;;
39896;SDS011;25567;48.276;14.242;2022-08-21T02:18:17;26.40;;;15.10;;
39896;SDS011;25567;48.276;14.242;2022-08-21T02:20:46;27.73;;;15.18;;
39896;SDS011;25567;48.276;14.242;2022-08-21T02:23:21;28.40;;;14.65;;
39896;SDS011;25567;48.276;14.242;2022-08-21T02:25:53;26.13;;;14.98;;
39896;SDS011;25567;48.276;14.242;2022-08-21T02:28:21;23.33;;;14.73;;
39896;SDS011;25567;48.276;14.242;2022-08-21T02:30:48;26.60;;;14.82;;
39896;SDS011;25567;48.276;14.242;2022-08-21T02:33:17;21.90;;;14.45;;
39896;SDS011;25567;48.276;14.242;2022-08-21T02:35:51;29.00;;;15.13;;
39896;SDS011;25567;48.276;14.242;2022-08-21T02:38:20;27.00;;;15.48;;
39896;SDS011;25567;48.276;14.242;2022-08-21T02:40:49;23.52;;;14.75;;
39896;SDS011;25567;48.276;14.242;2022-08-21T02:43:18;25.30;;;15.20;;
39896;SDS011;25567;48.276;14.242;2022-08-21T02:45:46;23.00;;;14.52;;
39896;SDS011;25567;48.276;14.242;2022-08-21T02:48:17;26.35;;;14.23;;
39896;SDS011;25567;48.276;14.242;2022-08-21T02:50:47;20.33;;;12.80;;
39896;SDS011;25567;48.276;14.242;2022-08-21T02:53:17;28.75;;;14.40;;
39896;SDS011;25567;48.276;14.242;2022-08-21T02:55:45;22.65;;;13.30;;
39896;SDS011;25567;48.276;14.242;2022-08-21T02:58:15;23.02;;;13.98;;
39896;SDS011;25567;48.276;14.242;2022-08-21T03:00:44;24.17;;;13.55;;
39896;SDS011;25567;48.276;14.242;2022-08-21T03:03:11;23.20;;;13.85;;
39896;SDS011;25567;48.276;14.242;2022-08-21T03:05:39;21.70;;;12.85;;
39896;SDS011;25567;48.276;14.242;2022-08-21T03:08:07;22.25;;;14.20;;
39896;SDS011;25567;48.276;14.242;2022-08-21T03:10:38;30.63;;;15.45;;
39896;SDS011;25567;48.276;14.242;2022-08-21T03:13:07;22.35;;;14.20;;
39896;SDS011;25567;48.276;14.242;2022-08-21T03:15:34;30.02;;;14.88;;
39896;SDS011;25567;48.276;14.242;2022-08-21T03:18:03;26.83;;;14.45;;
39896;SDS011;25567;48.276;14.242;2022-08-21T03:20:31;28.35;;;15.18;;
39896;SDS011;25567;48.276;14.242;2022-08-21T03:22:59;23.63;;;14.82;;
39896;SDS011;25567;48.276;14.242;2022-08-21T03:25:27;27.02;;;15.52;;
39896;SDS011;25567;48.276;14.242;2022-08-21T03:28:08;25.55;;;15.93;;
39896;SDS011;25567;48.276;14.242;2022-08-21T03:30:40;30.85;;;15.75;;
39896;SDS011;25567;48.276;14.242;2022-08-21T03:33:07;32.40;;;17.80;;
39896;SDS011;25567;48.276;14.242;2022-08-21T03:35:38;28.85;;;18.45;;
39896;SDS011;25567;48.276;14.242;2022-08-21T03:38:05;31.45;;;17.23;;
39896;SDS011;25567;48.276;14.242;2022-08-21T03:40:31;32.63;;;16.20;;
39896;SDS011;25567;48.276;14.242;2022-08-21T03:42:58;29.80;;;17.25;;
39896;SDS011;25567;48.276;14.242;2022-08-21T03:45:25;29.23;;;17.67;;
39896;SDS011;25567;48.276;14.242;2022-08-21T03:47:55;31.02;;;16.80;;
39896;SDS011;25567;48.276;14.242;2022-08-21T03:50:25;28.95;;;17.20;;
39896;SDS011;25567;48.276;14.242;2022-08-21T03:52:54;32.65;;;17.77;;
39896;SDS011;25567;48.276;14.242;2022-08-21T03:55:21;30.45;;;17.40;;
39896;SDS011;25567;48.276;14.242;2022-08-21T03:57:48;29.85;;;17.42;;
39896;SDS011;25567;48.276;14.242;2022-08-21T04:00:15;33.85;;;18.98;;
39896;SDS011;25567;48.276;14.242;2022-08-21T04:02:43;33.38;;;18.08;;
39896;SDS011;25567;48.276;14.242;2022-08-21T04:05:10;30.30;;;17.73;;
39896;SDS011;25567;48.276;14.242;2022-08-21T04:07:38;32.58;;;18.33;;
39896;SDS011;25567;48.276;14.242;2022-08-21T04:10:05;29.23;;;16.65;;
39896;SDS011;25567;48.276;14.242;2022-08-21T04:12:33;32.72;;;18.30;;
39896;SDS011;25567;48.276;14.242;2022-08-21T04:15:00;33.55;;;18.13;;
39896;SDS011;25567;48.276;14.242;2022-08-21T04:17:28;29.83;;;17.20;;
39896;SDS011;25567;48.276;14.242;2022-08-21T04:19:54;34.67;;;17.50;;
39896;SDS011;25567;48.276;14.242;2022-08-21T04:22:21;30.92;;;17.58;;
39896;SDS011;25567;48.276;14.242;2022-08-21T04:24:48;31.30;;;18.17;;
39896;SDS011;25567;48.276;14.242;2022-08-21T04:27:15;31.23;;;18.17;;
39896;SDS011;25567;48.276;14.242;2022-08-21T04:29:42;35.30;;;18.58;;
39896;SDS011;25567;48.276;14.242;2022-08-21T04:32:09;29.35;;;17.50;;
39896;SDS011;25567;48.276;14.242;2022-08-21T04:34:35;28.25;;;17.95;;
39896;SDS011;25567;48.276;14.242;2022-08-21T04:37:02;28.77;;;16.88;;
39896;SDS011;25567;48.276;14.242;2022-08-21T04:39:29;29.65;;;17.45;;
39896;SDS011;25567;48.276;14.242;2022-08-21T04:41:56;26.25;;;16.17;;
39896;SDS011;25567;48.276;14.242;2022-08-21T04:44:22;27.70;;;15.80;;
39896;SDS011;25567;48.276;14.242;2022-08-21T04:46:49;27.85;;;15.82;;
39896;SDS011;25567;48.276;14.242;2022-08-21T04:49:16;28.70;;;15.98;;
39896;SDS011;25567;48.276;14.242;2022-08-21T04:51:43;31.67;;;16.40;;
39896;SDS011;25567;48.276;14.242;2022-08-21T04:54:11;25.50;;;16.33;;
39896;SDS011;25567;48.276;14.242;2022-08-21T04:56:42;23.70;;;15.55;;
39896;SDS011;25567;48.276;14.242;2022-08-21T04:59:17;24.50;;;14.95;;
39896;SDS011;25567;48.276;14.242;2022-08-21T05:01:48;25.77;;;14.57;;
39896;SDS011;25567;48.276;14.242;2022-08-21T05:04:18;24.38;;;14.27;;
39896;SDS011;25567;48.276;14.242;2022-08-21T05:06:49;28.02;;;14.43;;
39896;SDS011;25567;48.276;14.242;2022-08-21T05:09:20;21.45;;;13.38;;
39896;SDS011;25567;48.276;14.242;2022-08-21T05:11:48;19.65;;;12.48;;
39896;SDS011;25567;48.276;14.242;2022-08-21T05:14:15;24.20;;;13.93;;
39896;SDS011;25567;48.276;14.242;2022-08-21T05:16:42;19.77;;;12.95;;
39896;SDS011;25567;48.276;14.242;2022-08-21T05:19:10;22.55;;;13.55;;
39896;SDS011;25567;48.276;14.242;2022-08-21T05:21:39;20.10;;;13.23;;
39896;SDS011;25567;48.276;14.242;2022-08-21T05:24:08;23.63;;;14.18;;
39896;SDS011;25567;48.276;14.242;2022-08-21T05:26:35;21.98;;;13.63;;
39896;SDS011;25567;48.276;14.242;2022-08-21T05:29:11;20.13;;;13.30;;
39896;SDS011;25567;48.276;14.242;2022-08-21T05:31:40;24.13;;;14.35;;
39896;SDS011;25567;48.276;14.242;2022-08-21T05:34:07;23.63;;;14.20;;
39896;SDS011;25567;48.276;14.242;2022-08-21T05:36:35;24.33;;;14.38;;
39896;SDS011;25567;48.276;14.242;2022-08-21T05:39:02;23.40;;;14.70;;
39896;SDS011;25567;48.276;14.242;2022-08-21T05:41:29;22.70;;;12.93;;
39896;SDS011;25567;48.276;14.242;2022-08-21T05:43:59;23.63;;;14.57;;
39896;SDS011;25567;48.276;14.242;2022-08-21T05:46:26;22.48;;;13.35;;
39896;SDS011;25567;48.276;14.242;2022-08-21T05:48:52;23.75;;;14.65;;
39896;SDS011;25567;48.276;14.242;2022-08-21T05:51:19;23.23;;;14.68;;
39896;SDS011;25567;48.276;14.242;2022-08-21T05:53:46;21.98;;;13.77;;
39896;SDS011;25567;48.276;14.242;2022-08-21T05:56:13;26.58;;;14.63;;
39896;SDS011;25567;48.276;14.242;2022-08-21T05:58:41;26.45;;;14.60;;
39896;SDS011;25567;48.276;14.242;2022-08-21T06:01:08;25.23;;;15.02;;
39896;SDS011;25567;48.276;14.242;2022-08-21T06:03:36;27.10;;;15.98;;
39896;SDS011;25567;48.276;14.242;2022-08-21T06:06:05;25.50;;;15.75;;
39896;SDS011;25567;48.276;14.242;2022-08-21T06:08:32;26.90;;;15.77;;
39896;SDS011;25567;48.276;14.242;2022-08-21T06:11:00;28.63;;;16.27;;
39896;SDS011;25567;48.276;14.242;2022-08-21T06:13:28;30.38;;;17.13;;
39896;SDS011;25567;48.276;14.242;2022-08-21T06:18:42;28.88;;;15.77;;
39896;SDS011;25567;48.276;14.242;2022-08-21T06:21:09;27.15;;;15.95;;
39896;SDS011;25567;48.276;14.242;2022-08-21T06:23:37;27.50;;;15.77;;
39896;SDS011;25567;48.276;14.242;2022-08-21T06:26:04;30.45;;;17.08;;
39896;SDS011;25567;48.276;14.242;2022-08-21T06:28:33;29.27;;;16.58;;
39896;SDS011;25567;48.276;14.242;2022-08-21T06:31:01;33.40;;;18.90;;
39896;SDS011;25567;48.276;14.242;2022-08-21T06:36:10;27.58;;;16.50;;
39896;SDS011;25567;48.276;14.242;2022-08-21T06:38:37;30.98;;;17.02;;
39896;SDS011;25567;48.276;14.242;2022-08-21T06:41:05;28.27;;;16.77;;
39896;SDS011;25567;48.276;14.242;2022-08-21T06:43:32;32.47;;;17.77;;
39896;SDS011;25567;48.276;14.242;2022-08-21T06:46:05;26.63;;;16.42;;
39896;SDS011;25567;48.276;14.242;2022-08-21T06:48:33;29.30;;;17.40;;
39896;SDS011;25567;48.276;14.242;2022-08-21T06:51:00;25.45;;;15.63;;
39896;SDS011;25567;48.276;14.242;2022-08-21T06:53:27;25.40;;;15.13;;
39896;SDS011;25567;48.276;14.242;2022-08-21T06:55:54;24.88;;;15.48;;
39896;SDS011;25567;48.276;14.242;2022-08-21T06:58:21;25.85;;;14.88;;
39896;SDS011;25567;48.276;14.242;2022-08-21T07:00:48;30.80;;;16.80;;
39896;SDS011;25567;48.276;14.242;2022-08-21T07:03:19;32.35;;;16.27;;
39896;SDS011;25567;48.276;14.242;2022-08-21T07:05:48;27.42;;;15.57;;
39896;SDS011;25567;48.276;14.242;2022-08-21T07:08:16;31.08;;;15.65;;
39896;SDS011;25567;48.276;14.242;2022-08-21T07:10:42;28.80;;;15.73;;
39896;SDS011;25567;48.276;14.242;2022-08-21T07:13:09;27.10;;;16.55;;
39896;SDS011;25567;48.276;14.242;2022-08-21T07:15:36;26.67;;;15.93;;
39896;SDS011;25567;48.276;14.242;2022-08-21T07:18:03;28.75;;;15.73;;
39896;SDS011;25567;48.276;14.242;2022-08-21T07:20:30;28.85;;;16.90;;
39896;SDS011;25567;48.276;14.242;2022-08-21T07:22:59;28.38;;;16.58;;
39896;SDS011;25567;48.276;14.242;2022-08-21T07:25:28;29.05;;;16.75;;
39896;SDS011;25567;48.276;14.242;2022-08-21T07:27:54;29.98;;;16.67;;
39896;SDS011;25567;48.276;14.242;2022-08-21T07:30:21;28.83;;;16.95;;
39896;SDS011;25567;48.276;14.242;2022-08-21T07:32:49;35.40;;;18.85;;
39896;SDS011;25567;48.276;14.242;2022-08-21T07:35:17;31.98;;;17.45;;
39896;SDS011;25567;48.276;14.242;2022-08-21T07:37:45;32.13;;;17.73;;
39896;SDS011;25567;48.276;14.242;2022-08-21T07:40:13;33.53;;;18.63;;
39896;SDS011;25567;48.276;14.242;2022-08-21T07:42:41;31.55;;;17.90;;
39896;SDS011;25567;48.276;14.242;2022-08-21T07:45:09;35.13;;;18.77;;
39896;SDS011;25567;48.276;14.242;2022-08-21T07:47:37;35.33;;;18.02;;
39896;SDS011;25567;48.276;14.242;2022-08-21T07:50:08;37.80;;;19.17;;
39896;SDS011;25567;48.276;14.242;2022-08-21T07:52:37;33.17;;;18.20;;
39896;SDS011;25567;48.276;14.242;2022-08-21T07:55:05;34.90;;;19.67;;
39896;SDS011;25567;48.276;14.242;2022-08-21T07:57:33;34.80;;;18.25;;
39896;SDS011;25567;48.276;14.242;2022-08-21T08:00:00;40.97;;;19.35;;
39896;SDS011;25567;48.276;14.242;2022-08-21T08:02:28;39.25;;;19.70;;
39896;SDS011;25567;48.276;14.242;2022-08-21T08:04:59;32.97;;;18.63;;
39896;SDS011;25567;48.276;14.242;2022-08-21T08:07:27;37.63;;;19.08;;
39896;SDS011;25567;48.276;14.242;2022-08-21T08:09:53;39.20;;;19.38;;
39896;SDS011;25567;48.276;14.242;2022-08-21T08:12:20;31.17;;;17.70;;
39896;SDS011;25567;48.276;14.242;2022-08-21T08:14:47;32.80;;;18.75;;
39896;SDS011;25567;48.276;14.242;2022-08-21T08:17:14;32.97;;;18.42;;
39896;SDS011;25567;48.276;14.242;2022-08-21T08:19:40;36.40;;;18.25;;
39896;SDS011;25567;48.276;14.242;2022-08-21T08:22:15;35.00;;;18.98;;
39896;SDS011;25567;48.276;14.242;2022-08-21T08:24:46;32.10;;;18.02;;
39896;SDS011;25567;48.276;14.242;2022-08-21T08:27:13;36.00;;;18.48;;
39896;SDS011;25567;48.276;14.242;2022-08-21T08:29:39;36.17;;;18.80;;
39896;SDS011;25567;48.276;14.242;2022-08-21T08:32:06;36.28;;;19.55;;
39896;SDS011;25567;48.276;14.242;2022-08-21T08:34:35;41.25;;;19.67;;
39896;SDS011;25567;48.276;14.242;2022-08-21T08:37:03;37.17;;;18.92;;
39896;SDS011;25567;48.276;14.242;2022-08-21T08:39:32;37.65;;;19.45;;
39896;SDS011;25567;48.276;14.242;2022-08-21T08:42:03;37.92;;;19.73;;
39896;SDS011;25567;48.276;14.242;2022-08-21T08:47:39;40.53;;;21.45;;
39896;SDS011;25567;48.276;14.242;2022-08-21T08:50:12;40.45;;;20.15;;
39896;SDS011;25567;48.276;14.242;2022-08-21T08:52:52;40.95;;;21.08;;
39896;SDS011;25567;48.276;14.242;2022-08-21T08:55:26;38.63;;;20.08;;
39896;SDS011;25567;48.276;14.242;2022-08-21T08:58:05;42.38;;;20.27;;
39896;SDS011;25567;48.276;14.242;2022-08-21T09:00:33;39.72;;;20.15;;
39896;SDS011;25567;48.276;14.242;2022-08-21T09:03:00;40.25;;;21.35;;
39896;SDS011;25567;48.276;14.242;2022-08-21T09:05:30;37.80;;;21.33;;
39896;SDS011;25567;48.276;14.242;2022-08-21T09:11:01;46.33;;;23.60;;
39896;SDS011;25567;48.276;14.242;2022-08-21T09:22:19;47.78;;;24.75;;
39896;SDS011;25567;48.276;14.242;2022-08-21T09:25:00;46.88;;;23.75;;
39896;SDS011;25567;48.276;14.242;2022-08-21T09:27:34;48.42;;;25.23;;
39896;SDS011;25567;48.276;14.242;2022-08-21T09:30:03;41.30;;;24.20;;
39896;SDS011;25567;48.276;14.242;2022-08-21T09:32:32;44.80;;;22.80;;
39896;SDS011;25567;48.276;14.242;2022-08-21T09:35:05;45.92;;;23.00;;
39896;SDS011;25567;48.276;14.242;2022-08-21T09:37:33;42.20;;;22.25;;
39896;SDS011;25567;48.276;14.242;2022-08-21T09:40:31;44.55;;;23.00;;
39896;SDS011;25567;48.276;14.242;2022-08-21T09:45:30;43.58;;;22.55;;
39896;SDS011;25567;48.276;14.242;2022-08-21T09:50:46;42.25;;;21.33;;
39896;SDS011;25567;48.276;14.242;2022-08-21T09:53:17;42.38;;;22.30;;
39896;SDS011;25567;48.276;14.242;2022-08-21T09:55:54;45.47;;;22.48;;
39896;SDS011;25567;48.276;14.242;2022-08-21T09:58:39;47.38;;;23.00;;
39896;SDS011;25567;48.276;14.242;2022-08-21T10:01:12;41.30;;;21.67;;
39896;SDS011;25567;48.276;14.242;2022-08-21T10:03:41;40.75;;;21.77;;
39896;SDS011;25567;48.276;14.242;2022-08-21T10:06:09;42.22;;;22.75;;
39896;SDS011;25567;48.276;14.242;2022-08-21T10:08:38;43.78;;;23.17;;
39896;SDS011;25567;48.276;14.242;2022-08-21T10:11:09;42.20;;;21.83;;
39896;SDS011;25567;48.276;14.242;2022-08-21T10:13:52;42.55;;;21.40;;
39896;SDS011;25567;48.276;14.242;2022-08-21T10:19:42;45.88;;;22.60;;
39896;SDS011;25567;48.276;14.242;2022-08-21T10:25:06;38.92;;;21.95;;
39896;SDS011;25567;48.276;14.242;2022-08-21T10:36:09;50.58;;;24.90;;
39896;SDS011;25567;48.276;14.242;2022-08-21T10:47:02;25.30;;;12.82;;
39896;SDS011;25567;48.276;14.242;2022-08-21T10:52:24;17.40;;;10.27;;
39896;SDS011;25567;48.276;14.242;2022-08-21T10:55:03;16.98;;;9.70;;
39896;SDS011;25567;48.276;14.242;2022-08-21T10:57:50;16.17;;;9.50;;
39896;SDS011;25567;48.276;14.242;2022-08-21T11:00:25;25.02;;;10.50;;
39896;SDS011;25567;48.276;14.242;2022-08-21T11:03:01;19.88;;;9.77;;
39896;SDS011;25567;48.276;14.242;2022-08-21T11:05:37;16.05;;;7.82;;
39896;SDS011;25567;48.276;14.242;2022-08-21T11:08:15;10.70;;;5.80;;
39896;SDS011;25567;48.276;14.242;2022-08-21T11:10:51;10.00;;;4.45;;
39896;SDS011;25567;48.276;14.242;2022-08-21T11:13:28;8.63;;;4.13;;
39896;SDS011;25567;48.276;14.242;2022-08-21T11:16:02;8.50;;;4.07;;
39896;SDS011;25567;48.276;14.242;2022-08-21T11:18:37;7.60;;;4.63;;
39896;SDS011;25567;48.276;14.242;2022-08-21T11:21:18;7.60;;;4.43;;
39896;SDS011;25567;48.276;14.242;2022-08-21T11:24:02;7.68;;;4.82;;
39896;SDS011;25567;48.276;14.242;2022-08-21T11:26:43;8.13;;;4.07;;
39896;SDS011;25567;48.276;14.242;2022-08-21T11:29:21;8.35;;;4.07;;
39896;SDS011;25567;48.276;14.242;2022-08-21T11:32:08;9.75;;;3.58;;
39896;SDS011;25567;48.276;14.242;2022-08-21T11:46:29;8.07;;;4.00;;
39896;SDS011;25567;48.276;14.242;2022-08-21T11:49:33;8.55;;;4.18;;
39896;SDS011;25567;48.276;14.242;2022-08-21T12:00:30;5.38;;;3.75;;
39896;SDS011;25567;48.276;14.242;2022-08-21T12:08:29;6.78;;;4.00;;
39896;SDS011;25567;48.276;14.242;2022-08-21T12:10:59;6.30;;;3.97;;
39896;SDS011;25567;48.276;14.242;2022-08-21T12:13:30;7.32;;;4.35;;
39896;SDS011;25567;48.276;14.242;2022-08-21T12:16:08;6.85;;;3.75;;
39896;SDS011;25567;48.276;14.242;2022-08-21T12:18:40;8.30;;;3.45;;
39896;SDS011;25567;48.276;14.242;2022-08-21T12:24:00;9.90;;;3.70;;
39896;SDS011;25567;48.276;14.242;2022-08-21T12:26:37;5.38;;;3.00;;
39896;SDS011;25567;48.276;14.242;2022-08-21T12:29:21;6.32;;;3.47;;
39896;SDS011;25567;48.276;14.242;2022-08-21T12:31:53;4.38;;;3.33;;
39896;SDS011;25567;48.276;14.242;2022-08-21T12:34:23;6.20;;;3.70;;
39896;SDS011;25567;48.276;14.242;2022-08-21T12:37:00;5.05;;;3.40;;
39896;SDS011;25567;48.276;14.242;2022-08-21T12:39:44;12.68;;;4.00;;
39896;SDS011;25567;48.276;14.242;2022-08-21T12:42:16;5.18;;;3.55;;
39896;SDS011;25567;48.276;14.242;2022-08-21T12:44:48;5.25;;;3.15;;
39896;SDS011;25567;48.276;14.242;2022-08-21T12:47:29;5.95;;;3.58;;
39896;SDS011;25567;48.276;14.242;2022-08-21T12:50:04;6.03;;;3.88;;
39896;SDS011;25567;48.276;14.242;2022-08-21T12:55:07;5.80;;;3.67;;
39896;SDS011;25567;48.276;14.242;2022-08-21T12:57:39;6.97;;;3.80;;
39896;SDS011;25567;48.276;14.242;2022-08-21T13:00:07;6.63;;;3.85;;
39896;SDS011;25567;48.276;14.242;2022-08-21T13:02:45;6.32;;;3.85;;
39896;SDS011;25567;48.276;14.242;2022-08-21T13:05:16;7.10;;;3.95;;
39896;SDS011;25567;48.276;14.242;2022-08-21T13:07:51;6.95;;;4.00;;
39896;SDS011;25567;48.276;14.242;2022-08-21T13:10:20;5.65;;;4.22;;
39896;SDS011;25567;48.276;14.242;2022-08-21T13:12:47;6.05;;;3.72;;
39896;SDS011;25567;48.276;14.242;2022-08-21T13:15:21;6.65;;;4.20;;
39896;SDS011;25567;48.276;14.242;2022-08-21T13:17:58;7.57;;;4.85;;
39896;SDS011;25567;48.276;14.242;2022-08-21T13:20:29;11.93;;;4.55;;
39896;SDS011;25567;48.276;14.242;2022-08-21T13:22:59;7.88;;;4.65;;
39896;SDS011;25567;48.276;14.242;2022-08-21T13:25:29;6.80;;;4.68;;
39896;SDS011;25567;48.276;14.242;2022-08-21T13:30:38;7.55;;;4.50;;
39896;SDS011;25567;48.276;14.242;2022-08-21T13:33:09;9.23;;;4.57;;
39896;SDS011;25567;48.276;14.242;2022-08-21T13:35:47;7.63;;;4.10;;
39896;SDS011;25567;48.276;14.242;2022-08-21T13:38:19;6.30;;;4.20;;
39896;SDS011;25567;48.276;14.242;2022-08-21T13:40:54;7.15;;;4.18;;
39896;SDS011;25567;48.276;14.242;2022-08-21T13:43:25;7.63;;;4.13;;
39896;SDS011;25567;48.276;14.242;2022-08-21T13:45:58;6.60;;;4.57;;
39896;SDS011;25567;48.276;14.242;2022-08-21T13:48:27;9.02;;;4.03;;
39896;SDS011;25567;48.276;14.242;2022-08-21T13:50:57;7.07;;;4.20;;
39896;SDS011;25567;48.276;14.242;2022-08-21T13:53:29;6.25;;;4.50;;
39896;SDS011;25567;48.276;14.242;2022-08-21T13:55:57;8.02;;;4.15;;
39896;SDS011;25567;48.276;14.242;2022-08-21T13:58:28;9.00;;;4.60;;
39896;SDS011;25567;48.276;14.242;2022-08-21T14:00:58;6.55;;;4.32;;
39896;SDS011;25567;48.276;14.242;2022-08-21T14:05:56;7.35;;;5.10;;
39896;SDS011;25567;48.276;14.242;2022-08-21T14:10:57;7.47;;;5.18;;
39896;SDS011;25567;48.276;14.242;2022-08-21T14:13:28;7.07;;;4.82;;
39896;SDS011;25567;48.276;14.242;2022-08-21T14:15:59;8.00;;;5.00;;
39896;SDS011;25567;48.276;14.242;2022-08-21T14:18:28;8.75;;;5.72;;
39896;SDS011;25567;48.276;14.242;2022-08-21T14:21:03;9.38;;;6.15;;
39896;SDS011;25567;48.276;14.242;2022-08-21T14:23:32;9.00;;;5.97;;
39896;SDS011;25567;48.276;14.242;2022-08-21T14:25:59;9.00;;;6.35;;
39896;SDS011;25567;48.276;14.242;2022-08-21T14:28:29;15.13;;;6.72;;
39896;SDS011;25567;48.276;14.242;2022-08-21T14:31:10;11.27;;;7.20;;
39896;SDS011;25567;48.276;14.242;2022-08-21T14:33:39;11.85;;;7.43;;
39896;SDS011;25567;48.276;14.242;2022-08-21T14:36:06;14.77;;;7.88;;
39896;SDS011;25567;48.276;14.242;2022-08-21T14:38:37;10.30;;;6.85;;
39896;SDS011;25567;48.276;14.242;2022-08-21T14:41:09;7.50;;;5.05;;
39896;SDS011;25567;48.276;14.242;2022-08-21T14:43:44;8.60;;;5.88;;
39896;SDS011;25567;48.276;14.242;2022-08-21T14:46:22;7.40;;;5.50;;
39896;SDS011;25567;48.276;14.242;2022-08-21T14:48:51;7.97;;;5.38;;
39896;SDS011;25567;48.276;14.242;2022-08-21T14:51:18;9.52;;;5.85;;
39896;SDS011;25567;48.276;14.242;2022-08-21T14:53:45;12.13;;;5.93;;
39896;SDS011;25567;48.276;14.242;2022-08-21T14:56:13;8.48;;;5.65;;
39896;SDS011;25567;48.276;14.242;2022-08-21T14:58:43;8.93;;;5.75;;
39896;SDS011;25567;48.276;14.242;2022-08-21T15:01:12;8.80;;;5.80;;
39896;SDS011;25567;48.276;14.242;2022-08-21T15:03:40;7.93;;;5.57;;
39896;SDS011;25567;48.276;14.242;2022-08-21T15:06:07;12.27;;;5.97;;
39896;SDS011;25567;48.276;14.242;2022-08-21T15:08:34;8.10;;;5.93;;
39896;SDS011;25567;48.276;14.242;2022-08-21T15:11:01;9.48;;;5.60;;
39896;SDS011;25567;48.276;14.242;2022-08-21T15:13:41;10.23;;;6.32;;
39896;SDS011;25567;48.276;14.242;2022-08-21T15:16:08;11.05;;;7.50;;
39896;SDS011;25567;48.276;14.242;2022-08-21T15:18:36;11.13;;;6.68;;
39896;SDS011;25567;48.276;14.242;2022-08-21T15:21:03;11.25;;;6.93;;
39896;SDS011;25567;48.276;14.242;2022-08-21T15:23:30;10.80;;;6.97;;
39896;SDS011;25567;48.276;14.242;2022-08-21T15:25:57;10.00;;;6.60;;
39896;SDS011;25567;48.276;14.242;2022-08-21T15:28:25;13.90;;;7.47;;
39896;SDS011;25567;48.276;14.242;2022-08-21T15:30:57;9.77;;;7.00;;
39896;SDS011;25567;48.276;14.242;2022-08-21T15:33:26;10.88;;;6.93;;
39896;SDS011;25567;48.276;14.242;2022-08-21T15:35:53;14.35;;;7.65;;
39896;SDS011;25567;48.276;14.242;2022-08-21T15:38:19;13.13;;;8.30;;
39896;SDS011;25567;48.276;14.242;2022-08-21T15:40:46;12.23;;;7.85;;
39896;SDS011;25567;48.276;14.242;2022-08-21T15:43:21;12.82;;;7.75;;
39896;SDS011;25567;48.276;14.242;2022-08-21T15:45:55;14.77;;;8.60;;
39896;SDS011;25567;48.276;14.242;2022-08-21T15:48:24;11.77;;;7.57;;
39896;SDS011;25567;48.276;14.242;2022-08-21T15:50:51;13.52;;;8.23;;
39896;SDS011;25567;48.276;14.242;2022-08-21T15:53:18;15.90;;;8.63;;
39896;SDS011;25567;48.276;14.242;2022-08-21T15:55:44;14.45;;;8.73;;
39896;SDS011;25567;48.276;14.242;2022-08-21T15:58:12;16.63;;;8.75;;
39896;SDS011;25567;48.276;14.242;2022-08-21T16:00:41;17.67;;;8.32;;
39896;SDS011;25567;48.276;14.242;2022-08-21T16:03:11;13.90;;;9.30;;